createdAt,value
2017-06-05T00:00:38.912Z,0
2017-06-05T00:01:39.659Z,0
2017-06-05T00:02:40.378Z,0
2017-06-05T00:03:41.099Z,0
2017-06-05T00:04:41.818Z,0
2017-06-05T00:05:42.540Z,0
2017-06-05T00:06:43.260Z,0
2017-06-05T00:07:43.980Z,0
2017-06-05T00:08:44.705Z,0
2017-06-05T00:09:45.424Z,0
2017-06-05T00:10:46.145Z,0
2017-06-05T00:11:46.866Z,0
2017-06-05T00:12:47.587Z,0
2017-06-05T00:13:48.310Z,0
2017-06-05T00:14:49.030Z,0
2017-06-05T00:15:49.750Z,0
2017-06-05T00:16:50.476Z,0
2017-06-05T00:17:51.196Z,0
2017-06-05T00:18:51.919Z,0
2017-06-05T00:19:52.642Z,0
2017-06-05T00:20:53.364Z,0
2017-06-05T00:21:54.085Z,0
2017-06-05T00:22:54.808Z,0
2017-06-05T00:23:55.529Z,0
2017-06-05T00:24:56.252Z,0
2017-06-05T00:25:56.974Z,0
2017-06-05T00:26:57.698Z,0
2017-06-05T00:27:58.418Z,0
2017-06-05T00:28:59.141Z,0
2017-06-05T00:29:59.862Z,0
2017-06-05T00:31:00.584Z,0
2017-06-05T00:32:01.306Z,0
2017-06-05T00:33:02.028Z,0
2017-06-05T00:34:02.750Z,0
2017-06-05T00:35:03.474Z,0
2017-06-05T00:36:04.199Z,0
2017-06-05T00:37:04.918Z,0
2017-06-05T00:38:05.639Z,0
2017-06-05T00:39:06.361Z,0
2017-06-05T00:40:07.083Z,0
2017-06-05T00:41:07.806Z,0
2017-06-05T00:42:08.528Z,0
2017-06-05T00:43:09.248Z,0
2017-06-05T00:44:09.976Z,0
2017-06-05T00:45:10.695Z,0
2017-06-05T00:46:11.418Z,0
2017-06-05T00:47:12.139Z,0
2017-06-05T00:48:12.862Z,0
2017-06-05T00:49:13.582Z,0
2017-06-05T00:50:14.306Z,0
2017-06-05T00:51:15.028Z,0
2017-06-05T00:52:15.751Z,0
2017-06-05T00:53:16.471Z,0
2017-06-05T00:54:17.194Z,0
2017-06-05T00:55:17.916Z,0
2017-06-05T00:56:18.637Z,0
2017-06-05T00:57:19.361Z,0
2017-06-05T00:58:20.085Z,0
2017-06-05T00:59:20.809Z,0
2017-06-05T01:00:21.527Z,0
2017-06-05T01:01:22.248Z,0
2017-06-05T01:02:22.972Z,0
2017-06-05T01:03:23.693Z,0
2017-06-05T01:04:24.416Z,0
2017-06-05T01:05:25.137Z,0
2017-06-05T01:06:25.856Z,0
2017-06-05T01:07:26.578Z,0
2017-06-05T01:08:27.302Z,0
2017-06-05T01:09:28.050Z,0
2017-06-05T01:10:28.795Z,0
2017-06-05T01:11:29.513Z,0
2017-06-05T01:12:30.238Z,0
2017-06-05T01:13:30.983Z,0
2017-06-05T01:14:31.705Z,0
2017-06-05T01:15:32.429Z,0
2017-06-05T01:16:33.151Z,0
2017-06-05T01:17:33.873Z,0
2017-06-05T01:18:34.593Z,0
2017-06-05T01:19:35.319Z,0
2017-06-05T01:20:36.039Z,0
2017-06-05T01:21:36.763Z,0
2017-06-05T01:22:37.483Z,0
2017-06-05T01:23:38.204Z,0
2017-06-05T01:24:38.925Z,0
2017-06-05T01:25:39.647Z,0
2017-06-05T01:26:40.372Z,0
2017-06-05T01:27:41.118Z,0
2017-06-05T01:28:41.840Z,0
2017-06-05T01:29:42.559Z,0
2017-06-05T01:30:43.278Z,0
2017-06-05T01:31:44.001Z,0
2017-06-05T01:32:44.745Z,0
2017-06-05T01:33:45.465Z,0
2017-06-05T01:34:46.189Z,0
2017-06-05T01:35:46.910Z,0
2017-06-05T01:36:47.633Z,0
2017-06-05T01:37:48.355Z,0
2017-06-05T01:38:49.074Z,0
2017-06-05T01:39:49.826Z,0
2017-06-05T01:40:50.540Z,0
2017-06-05T01:41:51.262Z,0
2017-06-05T01:42:51.981Z,0
2017-06-05T01:43:52.701Z,0
2017-06-05T01:44:53.425Z,0
2017-06-05T01:45:54.145Z,0
2017-06-05T01:46:54.867Z,0
2017-06-05T01:47:55.587Z,0
2017-06-05T01:48:56.309Z,0
2017-06-05T01:49:57.056Z,0
2017-06-05T01:50:57.776Z,0
2017-06-05T01:51:58.498Z,0
2017-06-05T01:52:59.221Z,0
2017-06-05T01:53:59.940Z,0
2017-06-05T01:55:00.667Z,0
2017-06-05T01:56:01.384Z,0
2017-06-05T01:57:02.108Z,0
2017-06-05T01:58:02.828Z,0
2017-06-05T01:59:03.553Z,0
2017-06-05T02:00:04.274Z,0
2017-06-05T02:01:04.993Z,0
2017-06-05T02:02:05.717Z,0
2017-06-05T02:03:06.434Z,0
2017-06-05T02:04:07.157Z,0
2017-06-05T02:05:07.878Z,0
2017-06-05T02:06:08.600Z,0
2017-06-05T02:07:09.324Z,0
2017-06-05T02:08:10.046Z,0
2017-06-05T02:09:10.767Z,0
2017-06-05T02:10:11.489Z,0
2017-06-05T02:11:12.208Z,0
2017-06-05T02:12:12.928Z,0
2017-06-05T02:13:13.647Z,0
2017-06-05T02:14:14.368Z,0
2017-06-05T02:15:15.087Z,0
2017-06-05T02:16:15.806Z,0
2017-06-05T02:17:16.525Z,0
2017-06-05T02:18:17.271Z,0
2017-06-05T02:19:18.016Z,0
2017-06-05T02:20:18.737Z,0
2017-06-05T02:21:19.458Z,0
2017-06-05T02:22:20.178Z,0
2017-06-05T02:23:20.899Z,0
2017-06-05T02:24:21.621Z,0
2017-06-05T02:25:22.345Z,0
2017-06-05T02:26:23.089Z,0
2017-06-05T02:27:23.812Z,0
2017-06-05T02:28:24.532Z,0
2017-06-05T02:29:25.257Z,0
2017-06-05T02:30:25.976Z,0
2017-06-05T02:31:26.695Z,4
2017-06-05T02:32:27.415Z,4
2017-06-05T02:33:28.135Z,0
2017-06-05T02:34:28.857Z,0
2017-06-05T02:35:29.577Z,4
2017-06-05T02:36:30.299Z,4
2017-06-05T02:37:31.019Z,4
2017-06-05T02:38:31.738Z,4
2017-06-05T02:39:32.460Z,4
2017-06-05T02:40:33.206Z,4
2017-06-05T02:41:33.949Z,4
2017-06-05T02:42:34.672Z,8
2017-06-05T02:43:35.398Z,8
2017-06-05T02:44:36.113Z,8
2017-06-05T02:45:36.833Z,8
2017-06-05T02:46:37.554Z,8
2017-06-05T02:47:38.275Z,8
2017-06-05T02:48:38.995Z,12
2017-06-05T02:49:39.720Z,16
2017-06-05T02:50:40.467Z,16
2017-06-05T02:51:41.164Z,16
2017-06-05T02:52:41.884Z,20
2017-06-05T02:53:42.607Z,20
2017-06-05T02:54:43.331Z,28
2017-06-05T02:55:44.053Z,28
2017-06-05T02:56:44.801Z,36
2017-06-05T02:57:45.521Z,36
2017-06-05T02:58:46.244Z,44
2017-06-05T02:59:46.966Z,48
2017-06-05T03:00:47.691Z,52
2017-06-05T03:01:48.414Z,56
2017-06-05T03:02:49.134Z,60
2017-06-05T03:03:50.108Z,64
2017-06-05T03:04:50.829Z,72
2017-06-05T03:05:51.551Z,76
2017-06-05T03:06:52.272Z,84
2017-06-05T03:07:52.996Z,96
2017-06-05T03:08:53.968Z,100
2017-06-05T03:09:54.690Z,108
2017-06-05T03:10:55.416Z,120
2017-06-05T03:11:56.141Z,128
2017-06-05T03:12:56.865Z,136
2017-06-05T03:13:57.837Z,144
2017-06-05T03:14:58.560Z,156
2017-06-05T03:15:59.284Z,164
2017-06-05T03:17:00.005Z,176
2017-06-05T03:18:00.730Z,188
2017-06-05T03:19:01.702Z,204
2017-06-05T03:20:02.428Z,224
2017-06-05T03:21:03.153Z,244
2017-06-05T03:22:03.877Z,268
2017-06-05T03:23:04.601Z,284
2017-06-05T03:24:05.603Z,296
2017-06-05T03:25:06.350Z,308
2017-06-05T03:26:07.075Z,312
2017-06-05T03:27:07.803Z,320
2017-06-05T03:28:08.528Z,328
2017-06-05T03:29:09.503Z,344
2017-06-05T03:30:10.233Z,352
2017-06-05T03:31:10.956Z,360
2017-06-05T03:32:11.677Z,372
2017-06-05T03:33:12.402Z,384
2017-06-05T03:34:13.378Z,396
2017-06-05T03:35:14.101Z,412
2017-06-05T03:36:14.825Z,428
2017-06-05T03:37:15.548Z,452
2017-06-05T03:38:16.273Z,472
2017-06-05T03:39:17.250Z,496
2017-06-05T03:40:17.978Z,516
2017-06-05T03:41:18.701Z,540
2017-06-05T03:42:19.428Z,564
2017-06-05T03:43:20.151Z,584
2017-06-05T03:44:21.125Z,600
2017-06-05T03:45:21.853Z,624
2017-06-05T03:46:22.575Z,648
2017-06-05T03:47:23.302Z,668
2017-06-05T03:48:24.034Z,692
2017-06-05T03:49:25.000Z,712
2017-06-05T03:50:25.723Z,740
2017-06-05T03:51:26.449Z,764
2017-06-05T03:52:27.193Z,800
2017-06-05T03:53:27.920Z,836
2017-06-05T03:54:28.894Z,880
2017-06-05T03:55:29.617Z,924
2017-06-05T03:56:30.344Z,964
2017-06-05T03:57:31.070Z,1004
2017-06-05T03:58:31.795Z,1052
2017-06-05T03:59:32.772Z,1100
2017-06-05T04:00:33.494Z,1148
2017-06-05T04:01:34.223Z,1184
2017-06-05T04:02:34.948Z,1216
2017-06-05T04:03:35.674Z,1244
2017-06-05T04:04:36.651Z,1284
2017-06-05T04:05:37.376Z,1324
2017-06-05T04:06:38.105Z,1364
2017-06-05T04:07:38.850Z,1400
2017-06-05T04:08:39.577Z,1436
2017-06-05T04:09:40.551Z,1468
2017-06-05T04:10:41.278Z,1492
2017-06-05T04:11:42.004Z,1524
2017-06-05T04:12:42.728Z,1568
2017-06-05T04:13:43.458Z,1604
2017-06-05T04:14:44.435Z,1628
2017-06-05T04:15:45.157Z,1656
2017-06-05T04:16:45.882Z,1688
2017-06-05T04:17:46.610Z,1712
2017-06-05T04:18:47.335Z,1744
2017-06-05T04:19:48.314Z,1792
2017-06-05T04:20:49.039Z,1836
2017-06-05T04:21:49.763Z,1884
2017-06-05T04:22:50.490Z,1936
2017-06-05T04:23:51.220Z,1976
2017-06-05T04:24:52.213Z,1996
2017-06-05T04:25:52.938Z,1992
2017-06-05T04:26:53.666Z,2012
2017-06-05T04:27:54.394Z,2028
2017-06-05T04:28:55.121Z,2064
2017-06-05T04:29:56.097Z,2112
2017-06-05T04:30:56.821Z,2164
2017-06-05T04:31:57.549Z,2212
2017-06-05T04:32:58.274Z,2228
2017-06-05T04:33:59.004Z,2244
2017-06-05T04:35:00.006Z,2300
2017-06-05T04:36:00.731Z,2380
2017-06-05T04:37:01.458Z,2464
2017-06-05T04:38:02.184Z,2568
2017-06-05T04:39:02.912Z,2672
2017-06-05T04:40:03.890Z,2756
2017-06-05T04:41:04.617Z,2808
2017-06-05T04:42:05.346Z,2844
2017-06-05T04:43:06.071Z,2876
2017-06-05T04:44:06.798Z,2896
2017-06-05T04:45:07.777Z,2904
2017-06-05T04:46:08.507Z,2896
2017-06-05T04:47:09.235Z,2876
2017-06-05T04:48:09.962Z,2872
2017-06-05T04:49:10.689Z,2896
2017-06-05T04:50:11.693Z,2964
2017-06-05T04:51:12.419Z,3060
2017-06-05T04:52:13.146Z,3164
2017-06-05T04:53:13.869Z,3272
2017-06-05T04:54:14.599Z,3344
2017-06-05T04:55:15.602Z,3372
2017-06-05T04:56:16.326Z,3400
2017-06-05T04:57:17.057Z,3412
2017-06-05T04:58:17.785Z,3448
2017-06-05T04:59:18.512Z,3508
2017-06-05T05:00:19.488Z,3580
2017-06-05T05:01:20.215Z,3636
2017-06-05T05:02:20.946Z,3672
2017-06-05T05:03:21.669Z,3692
2017-06-05T05:04:22.397Z,3708
2017-06-05T05:05:23.376Z,3700
2017-06-05T05:06:24.103Z,3708
2017-06-05T05:07:24.833Z,3720
2017-06-05T05:08:25.559Z,3736
2017-06-05T05:09:26.290Z,3756
2017-06-05T05:10:27.269Z,3804
2017-06-05T05:11:27.997Z,3852
2017-06-05T05:12:28.725Z,3916
2017-06-05T05:13:29.452Z,3992
2017-06-05T05:14:30.180Z,4052
2017-06-05T05:15:31.157Z,4088
2017-06-05T05:16:31.889Z,4108
2017-06-05T05:17:32.616Z,4104
2017-06-05T05:18:33.345Z,4100
2017-06-05T05:19:34.075Z,4100
2017-06-05T05:20:35.054Z,4124
2017-06-05T05:21:35.807Z,4168
2017-06-05T05:22:36.535Z,4216
2017-06-05T05:23:37.263Z,4252
2017-06-05T05:24:38.011Z,4288
2017-06-05T05:25:38.991Z,4308
2017-06-05T05:26:39.719Z,4356
2017-06-05T05:27:40.447Z,4420
2017-06-05T05:28:41.174Z,4492
2017-06-05T05:29:41.905Z,4548
2017-06-05T05:30:42.884Z,4580
2017-06-05T05:31:43.611Z,4612
2017-06-05T05:32:44.340Z,4648
2017-06-05T05:33:45.068Z,4696
2017-06-05T05:34:45.797Z,4740
2017-06-05T05:35:46.777Z,4772
2017-06-05T05:36:47.525Z,4784
2017-06-05T05:37:48.254Z,4796
2017-06-05T05:38:48.984Z,4812
2017-06-05T05:39:49.713Z,4868
2017-06-05T05:40:50.694Z,4952
2017-06-05T05:41:51.447Z,5068
2017-06-05T05:42:52.178Z,5180
2017-06-05T05:43:52.933Z,5236
2017-06-05T05:44:53.658Z,5248
2017-06-05T05:45:54.640Z,5252
2017-06-05T05:46:55.367Z,5244
2017-06-05T05:47:56.096Z,5240
2017-06-05T05:48:56.849Z,5256
2017-06-05T05:49:57.576Z,5252
2017-06-05T05:50:58.557Z,5228
2017-06-05T05:51:59.286Z,5228
2017-06-05T05:53:00.015Z,5232
2017-06-05T05:54:00.744Z,5256
2017-06-05T05:55:01.475Z,5344
2017-06-05T05:56:02.456Z,5468
2017-06-05T05:57:03.184Z,5588
2017-06-05T05:58:03.916Z,5712
2017-06-05T05:59:04.645Z,5788
2017-06-05T06:00:05.373Z,5848
2017-06-05T06:01:06.354Z,5900
2017-06-05T06:02:07.083Z,5980
2017-06-05T06:03:07.834Z,6060
2017-06-05T06:04:08.586Z,6148
2017-06-05T06:05:09.315Z,6256
2017-06-05T06:06:10.294Z,6256
2017-06-05T06:07:11.022Z,6296
2017-06-05T06:08:11.753Z,6260
2017-06-05T06:09:12.485Z,6256
2017-06-05T06:10:13.214Z,6304
2017-06-05T06:11:14.194Z,6256
2017-06-05T06:12:14.923Z,6052
2017-06-05T06:13:15.651Z,5992
2017-06-05T06:14:16.381Z,5916
2017-06-05T06:15:17.110Z,5948
2017-06-05T06:16:18.092Z,6080
2017-06-05T06:17:18.821Z,6060
2017-06-05T06:18:19.554Z,6088
2017-06-05T06:19:20.280Z,6200
2017-06-05T06:20:21.010Z,6416
2017-06-05T06:21:21.991Z,6544
2017-06-05T06:22:22.721Z,6672
2017-06-05T06:23:23.451Z,6692
2017-06-05T06:24:24.181Z,6612
2017-06-05T06:25:24.913Z,6528
2017-06-05T06:26:25.892Z,6480
2017-06-05T06:27:26.622Z,6424
2017-06-05T06:28:27.375Z,6356
2017-06-05T06:29:28.106Z,6360
2017-06-05T06:30:28.862Z,6324
2017-06-05T06:31:29.842Z,6412
2017-06-05T06:32:30.574Z,6512
2017-06-05T06:33:31.305Z,6620
2017-06-05T06:34:32.032Z,6712
2017-06-05T06:35:32.763Z,6776
2017-06-05T06:36:33.743Z,6672
2017-06-05T06:37:34.499Z,6632
2017-06-05T06:38:35.227Z,6568
2017-06-05T06:39:35.981Z,6728
2017-06-05T06:40:36.710Z,6692
2017-06-05T06:41:37.687Z,6956
2017-06-05T06:42:38.420Z,7020
2017-06-05T06:43:39.172Z,7132
2017-06-05T06:44:39.906Z,7132
2017-06-05T06:45:40.634Z,7204
2017-06-05T06:46:41.613Z,7260
2017-06-05T06:47:42.345Z,7232
2017-06-05T06:48:43.075Z,7364
2017-06-05T06:49:43.807Z,7436
2017-06-05T06:50:44.538Z,7392
2017-06-05T06:51:45.518Z,7392
2017-06-05T06:52:46.250Z,7348
2017-06-05T06:53:46.979Z,7404
2017-06-05T06:54:47.712Z,7660
2017-06-05T06:55:48.442Z,7708
2017-06-05T06:56:49.422Z,7736
2017-06-05T06:57:50.152Z,7776
2017-06-05T06:58:50.889Z,7852
2017-06-05T06:59:51.618Z,8036
2017-06-05T07:00:52.350Z,7888
2017-06-05T07:01:53.330Z,7696
2017-06-05T07:02:54.061Z,7820
2017-06-05T07:03:54.791Z,7876
2017-06-05T07:04:55.525Z,7852
2017-06-05T07:05:56.256Z,8064
2017-06-05T07:06:57.238Z,8136
2017-06-05T07:07:57.966Z,8316
2017-06-05T07:08:58.699Z,8340
2017-06-05T07:09:59.430Z,8320
2017-06-05T07:11:00.162Z,8372
2017-06-05T07:12:01.142Z,8588
2017-06-05T07:13:01.873Z,8564
2017-06-05T07:14:02.603Z,8576
2017-06-05T07:15:03.334Z,8644
2017-06-05T07:16:04.088Z,8672
2017-06-05T07:17:05.069Z,8740
2017-06-05T07:18:05.800Z,8788
2017-06-05T07:19:06.531Z,8892
2017-06-05T07:20:07.268Z,9088
2017-06-05T07:21:07.996Z,9188
2017-06-05T07:22:08.979Z,9108
2017-06-05T07:23:09.712Z,9100
2017-06-05T07:24:10.448Z,9324
2017-06-05T07:25:11.177Z,9396
2017-06-05T07:26:11.906Z,9588
2017-06-05T07:27:12.910Z,9840
2017-06-05T07:28:13.648Z,9600
2017-06-05T07:29:14.400Z,9640
2017-06-05T07:30:15.128Z,9572
2017-06-05T07:31:15.861Z,9616
2017-06-05T07:32:16.842Z,9764
2017-06-05T07:33:17.575Z,9492
2017-06-05T07:34:18.306Z,9264
2017-06-05T07:35:19.039Z,9356
2017-06-05T07:36:19.769Z,9520
2017-06-05T07:37:20.754Z,9480
2017-06-05T07:38:21.484Z,9324
2017-06-05T07:39:22.218Z,9092
2017-06-05T07:40:22.950Z,9376
2017-06-05T07:41:23.683Z,9520
2017-06-05T07:42:24.666Z,9724
2017-06-05T07:43:25.397Z,10104
2017-06-05T07:44:26.134Z,10548
2017-06-05T07:45:26.868Z,10432
2017-06-05T07:46:27.598Z,10340
2017-06-05T07:47:28.585Z,10404
2017-06-05T07:48:29.316Z,10420
2017-06-05T07:49:30.050Z,10736
2017-06-05T07:50:30.788Z,11104
2017-06-05T07:51:31.545Z,11120
2017-06-05T07:52:32.531Z,11132
2017-06-05T07:53:33.284Z,10736
2017-06-05T07:54:34.001Z,11332
2017-06-05T07:55:34.737Z,11436
2017-06-05T07:56:35.476Z,11936
2017-06-05T07:57:36.464Z,12828
2017-06-05T07:58:37.199Z,16256
2017-06-05T07:59:37.937Z,37312
2017-06-05T08:00:38.675Z,36864
2017-06-05T08:01:39.412Z,31008
2017-06-05T08:02:40.396Z,42272
2017-06-05T08:03:41.133Z,51072
2017-06-05T08:04:41.871Z,52960
2017-06-05T08:05:42.609Z,51520
2017-06-05T08:06:43.347Z,46944
2017-06-05T08:07:44.335Z,48192
2017-06-05T08:08:45.072Z,51296
2017-06-05T08:09:45.815Z,45056
2017-06-05T08:10:46.552Z,57504
2017-06-05T08:11:47.292Z,62176
2017-06-05T08:12:48.285Z,62816
2017-06-05T08:13:49.023Z,69216
2017-06-05T08:14:49.768Z,72160
2017-06-05T08:15:50.510Z,71456
2017-06-05T08:16:51.254Z,73632
2017-06-05T08:17:52.270Z,76064
2017-06-05T08:18:53.014Z,74176
2017-06-05T08:19:53.757Z,73920
2017-06-05T08:20:54.503Z,63712
2017-06-05T08:21:55.260Z,62784
2017-06-05T08:22:56.279Z,68032
2017-06-05T08:23:57.024Z,77568
2017-06-05T08:24:57.767Z,72416
2017-06-05T08:25:58.510Z,69696
2017-06-05T08:26:59.250Z,67584
2017-06-05T08:28:00.240Z,66176
2017-06-05T08:29:00.985Z,68448
2017-06-05T08:30:01.728Z,69632
2017-06-05T08:31:02.472Z,74912
2017-06-05T08:32:03.215Z,77312
2017-06-05T08:33:04.207Z,80416
2017-06-05T08:34:04.950Z,76832
2017-06-05T08:35:05.690Z,76704
2017-06-05T08:36:06.432Z,79552
2017-06-05T08:37:07.177Z,76000
2017-06-05T08:38:08.168Z,70752
2017-06-05T08:39:08.908Z,69248
2017-06-05T08:40:09.672Z,72736
2017-06-05T08:41:10.414Z,67616
2017-06-05T08:42:11.157Z,66112
2017-06-05T08:43:12.148Z,63520
2017-06-05T08:44:12.891Z,55744
2017-06-05T08:45:13.631Z,69856
2017-06-05T08:46:14.374Z,56320
2017-06-05T08:47:15.115Z,42208
2017-06-05T08:48:16.107Z,38880
2017-06-05T08:49:16.845Z,54368
2017-06-05T08:50:17.593Z,73024
2017-06-05T08:51:18.352Z,78592
2017-06-05T08:52:19.092Z,80384
2017-06-05T08:53:20.085Z,74592
2017-06-05T08:54:20.828Z,69824
2017-06-05T08:55:21.572Z,67520
2017-06-05T08:56:22.312Z,61024
2017-06-05T08:57:23.079Z,49600
2017-06-05T08:58:24.072Z,46336
2017-06-05T08:59:24.814Z,38848
2017-06-05T09:00:25.553Z,33632
2017-06-05T09:01:26.293Z,48000
2017-06-05T09:02:27.037Z,60448
2017-06-05T09:03:28.028Z,65440
2017-06-05T09:04:28.766Z,56000
2017-06-05T09:05:29.532Z,58144
2017-06-05T09:06:30.273Z,54912
2017-06-05T09:07:31.012Z,46784
2017-06-05T09:08:32.003Z,46528
2017-06-05T09:09:32.747Z,45312
2017-06-05T09:10:33.489Z,45088
2017-06-05T09:11:34.231Z,55616
2017-06-05T09:12:34.993Z,76416
2017-06-05T09:13:35.985Z,81824
2017-06-05T09:14:36.728Z,77600
2017-06-05T09:15:37.471Z,65856
2017-06-05T09:16:38.211Z,75520
2017-06-05T09:17:38.954Z,67712
2017-06-05T09:18:39.948Z,72864
2017-06-05T09:19:40.691Z,72576
2017-06-05T09:20:41.454Z,64672
2017-06-05T09:21:42.199Z,62976
2017-06-05T09:22:42.939Z,70016
2017-06-05T09:23:43.931Z,71520
2017-06-05T09:24:44.678Z,72192
2017-06-05T09:25:45.448Z,60896
2017-06-05T09:26:46.189Z,58176
2017-06-05T09:27:46.931Z,66624
2017-06-05T09:28:47.926Z,68288
2017-06-05T09:29:48.668Z,83424
2017-06-05T09:30:49.410Z,74560
2017-06-05T09:31:50.154Z,76096
2017-06-05T09:32:50.899Z,74784
2017-06-05T09:33:51.895Z,84704
2017-06-05T09:34:52.634Z,84832
2017-06-05T09:35:53.380Z,78880
2017-06-05T09:36:54.126Z,83616
2017-06-05T09:37:54.864Z,95968
2017-06-05T09:38:55.857Z,95328
2017-06-05T09:39:56.599Z,95296
2017-06-05T09:40:57.343Z,94304
2017-06-05T09:41:58.088Z,97152
2017-06-05T09:42:58.834Z,98048
2017-06-05T09:43:59.829Z,96256
2017-06-05T09:45:00.574Z,94976
2017-06-05T09:46:01.321Z,97216
2017-06-05T09:47:02.066Z,97632
2017-06-05T09:48:02.812Z,102400
2017-06-05T09:49:03.811Z,92384
2017-06-05T09:50:04.562Z,100800
2017-06-05T09:51:05.312Z,99872
2017-06-05T09:52:06.063Z,103136
2017-06-05T09:53:06.812Z,102304
2017-06-05T09:54:07.811Z,106848
2017-06-05T09:55:08.562Z,106432
2017-06-05T09:56:09.339Z,101984
2017-06-05T09:57:10.092Z,104288
2017-06-05T09:58:10.844Z,110240
2017-06-05T09:59:11.849Z,105056
2017-06-05T10:00:12.608Z,104352
2017-06-05T10:01:13.367Z,106720
2017-06-05T10:02:14.119Z,105312
2017-06-05T10:03:14.876Z,105888
2017-06-05T10:04:15.884Z,100512
2017-06-05T10:05:16.634Z,96320
2017-06-05T10:06:17.387Z,92352
2017-06-05T10:07:18.166Z,96256
2017-06-05T10:08:18.923Z,91488
2017-06-05T10:09:19.927Z,93440
2017-06-05T10:10:20.677Z,83168
2017-06-05T10:11:21.433Z,77728
2017-06-05T10:12:22.185Z,84928
2017-06-05T10:13:22.943Z,79232
2017-06-05T10:14:23.946Z,68800
2017-06-05T10:15:24.697Z,79968
2017-06-05T10:16:25.449Z,76736
2017-06-05T10:17:26.202Z,68096
2017-06-05T10:18:26.951Z,84864
2017-06-05T10:19:27.954Z,80352
2017-06-05T10:20:28.709Z,86432
2017-06-05T10:21:29.458Z,90368
2017-06-05T10:22:30.212Z,94848
2017-06-05T10:23:30.962Z,99744
2017-06-05T10:24:31.964Z,100448
2017-06-05T10:25:32.720Z,106624
2017-06-05T10:26:33.477Z,105760
2017-06-05T10:27:34.232Z,106560
2017-06-05T10:28:34.988Z,102080
2017-06-05T10:29:35.990Z,101760
2017-06-05T10:30:36.742Z,101824
2017-06-05T10:31:37.497Z,95008
2017-06-05T10:32:38.251Z,92704
2017-06-05T10:33:39.005Z,98112
2017-06-05T10:34:40.006Z,97056
2017-06-05T10:35:40.760Z,91936
2017-06-05T10:36:41.510Z,98560
2017-06-05T10:37:42.264Z,98208
2017-06-05T10:38:43.041Z,96960
2017-06-05T10:39:44.043Z,101792
2017-06-05T10:40:44.820Z,101184
2017-06-05T10:41:45.572Z,103520
2017-06-05T10:42:46.346Z,105600
2017-06-05T10:43:47.098Z,101920
2017-06-05T10:44:48.105Z,103776
2017-06-05T10:45:48.855Z,104064
2017-06-05T10:46:49.610Z,102240
2017-06-05T10:47:50.364Z,100576
2017-06-05T10:48:51.117Z,99264
2017-06-05T10:49:52.122Z,98240
2017-06-05T10:50:52.875Z,92544
2017-06-05T10:51:53.630Z,86560
2017-06-05T10:52:54.382Z,105312
2017-06-05T10:53:55.159Z,115936
2017-06-05T10:54:56.165Z,99840
2017-06-05T10:55:56.917Z,98720
2017-06-05T10:56:57.698Z,100896
2017-06-05T10:57:58.450Z,92640
2017-06-05T10:58:59.202Z,93024
2017-06-05T11:00:00.205Z,98048
2017-06-05T11:01:00.958Z,101536
2017-06-05T11:02:01.713Z,101792
2017-06-05T11:03:02.464Z,102912
2017-06-05T11:04:03.220Z,106528
2017-06-05T11:05:04.223Z,106912
2017-06-05T11:06:04.979Z,100768
2017-06-05T11:07:05.730Z,100192
2017-06-05T11:08:06.484Z,107392
2017-06-05T11:09:07.239Z,108608
2017-06-05T11:10:08.243Z,102080
2017-06-05T11:11:08.998Z,99744
2017-06-05T11:12:09.750Z,105600
2017-06-05T11:13:10.502Z,106912
2017-06-05T11:14:11.284Z,104672
2017-06-05T11:15:12.282Z,100864
2017-06-05T11:16:13.034Z,103840
2017-06-05T11:17:13.786Z,106432
2017-06-05T11:18:14.544Z,107552
2017-06-05T11:19:15.302Z,105056
2017-06-05T11:20:16.307Z,104000
2017-06-05T11:21:17.058Z,14912
2017-06-05T11:22:17.809Z,14916
2017-06-05T11:23:18.557Z,16304
2017-06-05T11:24:19.310Z,32032
2017-06-05T11:25:20.334Z,23296
2017-06-05T11:26:21.091Z,16980
2017-06-05T11:27:21.837Z,15868
2017-06-05T11:28:22.612Z,22496
2017-06-05T11:29:23.362Z,39584
2017-06-05T11:30:24.365Z,69856
2017-06-05T11:31:25.123Z,97024
2017-06-05T11:32:25.895Z,19296
2017-06-05T11:33:26.646Z,16348
2017-06-05T11:34:27.394Z,17728
2017-06-05T11:35:28.387Z,15348
2017-06-05T11:36:29.127Z,20480
2017-06-05T11:37:29.873Z,96864
2017-06-05T11:38:30.640Z,99232
2017-06-05T11:39:31.382Z,19744
2017-06-05T11:40:32.373Z,15128
2017-06-05T11:41:33.116Z,15092
2017-06-05T11:42:33.855Z,14380
2017-06-05T11:43:34.594Z,16316
2017-06-05T11:44:35.336Z,98592
2017-06-05T11:45:36.328Z,89056
2017-06-05T11:46:37.073Z,93792
2017-06-05T11:47:37.817Z,96384
2017-06-05T11:48:38.559Z,47712
2017-06-05T11:49:39.299Z,95456
2017-06-05T11:50:40.297Z,95584
2017-06-05T11:51:41.079Z,100448
2017-06-05T11:52:41.820Z,97152
2017-06-05T11:53:42.570Z,91392
2017-06-05T11:54:43.325Z,79008
2017-06-05T11:55:44.326Z,43520
2017-06-05T11:56:45.077Z,22592
2017-06-05T11:57:45.825Z,21856
2017-06-05T11:58:46.573Z,36448
2017-06-05T11:59:47.319Z,76768
2017-06-05T12:00:48.320Z,85120
2017-06-05T12:01:49.075Z,106112
2017-06-05T12:02:49.826Z,99008
2017-06-05T12:03:50.582Z,87520
2017-06-05T12:04:51.332Z,105056
2017-06-05T12:05:52.339Z,103648
2017-06-05T12:06:53.095Z,96256
2017-06-05T12:07:53.852Z,21184
2017-06-05T12:08:54.609Z,102912
2017-06-05T12:09:55.365Z,99488
2017-06-05T12:10:56.364Z,74528
2017-06-05T12:11:57.118Z,69120
2017-06-05T12:12:57.896Z,103264
2017-06-05T12:13:58.645Z,30752
2017-06-05T12:14:59.396Z,18112
2017-06-05T12:16:00.398Z,19072
2017-06-05T12:17:01.146Z,20224
2017-06-05T12:18:01.918Z,96064
2017-06-05T12:19:02.662Z,90720
2017-06-05T12:20:03.410Z,91616
2017-06-05T12:21:04.407Z,50976
2017-06-05T12:22:05.153Z,23008
2017-06-05T12:23:05.904Z,93792
2017-06-05T12:24:06.658Z,99904
2017-06-05T12:25:07.412Z,94528
2017-06-05T12:26:08.414Z,96096
2017-06-05T12:27:09.163Z,18176
2017-06-05T12:28:09.907Z,15804
2017-06-05T12:29:10.652Z,17184
2017-06-05T12:30:11.399Z,69664
2017-06-05T12:31:12.391Z,15240
2017-06-05T12:32:13.134Z,13336
2017-06-05T12:33:13.877Z,12504
2017-06-05T12:34:14.617Z,12804
2017-06-05T12:35:15.356Z,13700
2017-06-05T12:36:16.348Z,23104
2017-06-05T12:37:17.090Z,90592
2017-06-05T12:38:17.834Z,94464
2017-06-05T12:39:18.578Z,94368
2017-06-05T12:40:19.321Z,28448
2017-06-05T12:41:20.311Z,98368
2017-06-05T12:42:21.058Z,100832
2017-06-05T12:43:21.801Z,35296
2017-06-05T12:44:22.543Z,56896
2017-06-05T12:45:23.285Z,97152
2017-06-05T12:46:24.281Z,98208
2017-06-05T12:47:25.034Z,94560
2017-06-05T12:48:25.789Z,100000
2017-06-05T12:49:26.542Z,101504
2017-06-05T12:50:27.295Z,96864
2017-06-05T12:51:28.302Z,95840
2017-06-05T12:52:29.052Z,99456
2017-06-05T12:53:29.831Z,27744
2017-06-05T12:54:30.584Z,44672
2017-06-05T12:55:31.335Z,26208
2017-06-05T12:56:32.338Z,51072
2017-06-05T12:57:33.091Z,101632
2017-06-05T12:58:33.840Z,99168
2017-06-05T12:59:34.596Z,91808
2017-06-05T13:00:35.351Z,72288
2017-06-05T13:01:36.350Z,91936
2017-06-05T13:02:37.106Z,61696
2017-06-05T13:03:37.855Z,36288
2017-06-05T13:04:38.611Z,51232
2017-06-05T13:05:39.385Z,19328
2017-06-05T13:06:40.386Z,18464
2017-06-05T13:07:41.153Z,18016
2017-06-05T13:08:41.897Z,17504
2017-06-05T13:09:42.642Z,19040
2017-06-05T13:10:43.381Z,21024
2017-06-05T13:11:44.376Z,21760
2017-06-05T13:12:45.119Z,32960
2017-06-05T13:13:45.854Z,19264
2017-06-05T13:14:46.594Z,17056
2017-06-05T13:15:47.335Z,15688
2017-06-05T13:16:48.325Z,16384
2017-06-05T13:17:49.065Z,17600
2017-06-05T13:18:49.806Z,22272
2017-06-05T13:19:50.547Z,30624
2017-06-05T13:20:51.289Z,34720
2017-06-05T13:21:52.281Z,93920
2017-06-05T13:22:53.024Z,33152
2017-06-05T13:23:53.767Z,37248
2017-06-05T13:24:54.509Z,57056
2017-06-05T13:25:55.250Z,39712
2017-06-05T13:26:56.241Z,28128
2017-06-05T13:27:57.006Z,78304
2017-06-05T13:28:57.748Z,88768
2017-06-05T13:29:58.511Z,63424
2017-06-05T13:30:59.254Z,37344
2017-06-05T13:32:00.247Z,89184
2017-06-05T13:33:00.986Z,84192
2017-06-05T13:34:01.731Z,45888
2017-06-05T13:35:02.475Z,24192